Time;durP1;ratioP1;P1;durP2;ratioP2;P2;SDS_P1;SDS_P2;PMS_P1;PMS_P2;Temp;Humidity;BMP_temperature;BMP_pressure;BME280_temperature;BME280_humidity;BME280_pressure;Samples;Min_cycle;Max_cycle;Signal;HPM_P1;HPM_P2
2022/08/30 00:03:24;;;;;;;10.13;4.43;;;19.20;99.90;;;;;;5045261;28;20082;-69
2022/08/30 00:05:50;;;;;;;10.75;4.50;;;19.20;99.90;;;;;;5042680;28;20033;-69
2022/08/30 00:08:16;;;;;;;7.65;4.80;;;19.10;99.90;;;;;;5041622;28;20037;-70
2022/08/30 00:10:42;;;;;;;9.30;4.50;;;19.20;99.90;;;;;;5046708;28;20094;-69
2022/08/30 00:13:09;;;;;;;7.38;4.50;;;19.20;99.90;;;;;;5040937;28;20037;-68
2022/08/30 00:15:35;;;;;;;8.30;4.63;;;19.20;99.90;;;;;;5029676;28;20485;-69
2022/08/30 00:18:00;;;;;;;8.43;4.28;;;19.20;99.90;;;;;;5047811;28;20048;-69
2022/08/30 00:20:29;;;;;;;8.95;4.80;;;19.30;99.90;;;;;;5040312;28;20029;-69
2022/08/30 00:22:55;;;;;;;11.13;4.93;;;19.30;99.90;;;;;;5045290;28;20024;-69
2022/08/30 00:25:22;;;;;;;14.13;5.03;;;19.30;99.90;;;;;;5028155;28;20021;-70
2022/08/30 00:27:49;;;;;;;10.43;4.97;;;19.20;99.90;;;;;;5053042;28;20049;-72
2022/08/30 00:30:16;;;;;;;8.45;4.80;;;19.20;99.90;;;;;;5057933;28;20034;-73
2022/08/30 00:32:41;;;;;;;8.05;4.90;;;19.30;99.90;;;;;;5049896;28;20517;-70
2022/08/30 00:35:09;;;;;;;8.43;4.95;;;19.30;99.90;;;;;;5050250;28;20025;-72
2022/08/30 00:37:35;;;;;;;11.73;5.03;;;19.30;99.90;;;;;;5041808;28;20393;-69
2022/08/30 00:40:04;;;;;;;9.20;5.40;;;19.30;99.90;;;;;;5038163;28;20027;-71
2022/08/30 00:42:30;;;;;;;7.97;4.82;;;19.20;99.90;;;;;;5045742;28;20029;-71
2022/08/30 00:44:56;;;;;;;11.13;4.78;;;19.20;99.90;;;;;;5050847;28;20032;-72
2022/08/30 00:47:22;;;;;;;13.27;5.57;;;19.20;99.90;;;;;;5045944;28;20021;-72
2022/08/30 00:49:53;;;;;;;14.77;6.63;;;19.20;99.90;;;;;;5054410;28;20120;-72
2022/08/30 00:52:22;;;;;;;13.52;5.68;;;19.20;99.90;;;;;;5030610;28;20471;-70
2022/08/30 00:54:50;;;;;;;10.90;5.88;;;19.20;99.90;;;;;;5051647;28;20016;-72
2022/08/30 00:57:17;;;;;;;13.00;6.10;;;19.20;99.90;;;;;;5057897;28;20445;-69
2022/08/30 00:59:47;;;;;;;8.50;5.25;;;19.20;99.90;;;;;;5054470;28;20029;-71
2022/08/30 01:02:13;;;;;;;10.73;5.57;;;19.20;99.90;;;;;;5048319;28;20029;-72
2022/08/30 01:04:41;;;;;;;7.95;5.30;;;19.20;99.90;;;;;;5038827;28;20017;-69
2022/08/30 01:07:07;;;;;;;10.15;5.07;;;19.20;99.90;;;;;;5057662;28;20393;-73
2022/08/30 01:09:34;;;;;;;8.65;4.65;;;19.20;99.90;;;;;;5050748;28;20021;-73
2022/08/30 01:12:00;;;;;;;9.63;4.68;;;19.10;99.90;;;;;;5054300;28;20029;-72
2022/08/30 01:14:26;;;;;;;11.07;5.07;;;19.10;99.90;;;;;;5056169;28;20044;-73
2022/08/30 01:16:54;;;;;;;8.02;5.03;;;19.10;99.90;;;;;;5057313;28;20369;-72
2022/08/30 01:19:57;;;;;;;7.45;5.55;;;19.10;99.90;;;;;;5051169;28;20132;-72
2022/08/30 01:22:47;;;;;;;8.93;5.60;;;19.10;99.90;;;;;;5032290;28;20040;-72
2022/08/30 01:25:16;;;;;;;9.55;5.78;;;19.10;99.90;;;;;;5037669;28;20174;-73
2022/08/30 01:27:52;;;;;;;7.45;5.63;;;19.10;99.90;;;;;;5048220;28;20650;-72
2022/08/30 01:30:18;;;;;;;7.63;5.72;;;19.00;99.90;;;;;;5058503;28;20053;-71
2022/08/30 01:32:46;;;;;;;10.43;5.70;;;19.00;99.90;;;;;;5052661;28;20033;-71
2022/08/30 01:35:15;;;;;;;10.57;5.90;;;19.00;99.90;;;;;;5055776;28;20116;-69
2022/08/30 01:37:43;;;;;;;8.48;5.63;;;19.10;99.90;;;;;;5049863;28;20052;-73
2022/08/30 01:40:11;;;;;;;7.18;5.15;;;19.00;99.90;;;;;;5055789;28;20024;-72
2022/08/30 01:42:37;;;;;;;10.98;6.45;;;19.00;99.90;;;;;;5053895;28;20034;-70
2022/08/30 01:45:05;;;;;;;12.48;6.45;;;19.00;99.90;;;;;;5052131;28;20385;-70
2022/08/30 01:47:30;;;;;;;14.35;6.82;;;19.00;99.90;;;;;;5057769;28;20031;-69
2022/08/30 01:49:57;;;;;;;11.30;6.15;;;18.90;99.90;;;;;;5055235;28;20017;-70
2022/08/30 01:52:24;;;;;;;7.30;5.85;;;18.90;99.90;;;;;;5053720;28;20032;-72
2022/08/30 01:54:50;;;;;;;8.75;6.25;;;19.00;99.90;;;;;;5053578;28;20418;-70
2022/08/30 01:57:20;;;;;;;10.93;6.05;;;19.00;99.90;;;;;;5058578;28;20028;-69
2022/08/30 01:59:48;;;;;;;9.45;6.53;;;19.00;99.90;;;;;;5056318;28;20040;-69
2022/08/30 02:02:24;;;;;;;11.60;6.88;;;19.00;99.90;;;;;;5042933;28;20392;-68
2022/08/30 02:04:51;;;;;;;9.18;5.80;;;19.00;99.90;;;;;;5058198;28;20025;-69
2022/08/30 02:07:17;;;;;;;8.88;5.88;;;19.00;99.90;;;;;;5050321;28;20036;-69
2022/08/30 02:09:43;;;;;;;8.77;5.60;;;19.10;99.90;;;;;;5051227;28;20030;-70
2022/08/30 02:12:08;;;;;;;9.15;5.55;;;19.00;99.90;;;;;;5052241;28;20041;-69
2022/08/30 02:14:35;;;;;;;11.98;5.80;;;19.00;99.90;;;;;;5048728;28;20067;-69
2022/08/30 02:17:01;;;;;;;11.82;5.50;;;19.10;99.90;;;;;;5055805;28;20104;-69
2022/08/30 02:19:28;;;;;;;8.45;5.82;;;19.10;99.90;;;;;;5051439;28;20107;-71
2022/08/30 02:21:54;;;;;;;12.10;6.82;;;19.10;99.90;;;;;;5042502;28;20028;-69
2022/08/30 02:24:20;;;;;;;8.90;6.25;;;19.10;99.90;;;;;;5059037;28;20071;-69
2022/08/30 02:26:45;;;;;;;12.35;6.70;;;19.00;99.90;;;;;;5052004;28;20123;-69
2022/08/30 02:29:11;;;;;;;9.32;6.40;;;18.90;99.90;;;;;;5051815;28;20052;-69
2022/08/30 02:31:37;;;;;;;6.38;5.57;;;18.90;99.90;;;;;;5052204;28;20029;-69
2022/08/30 02:34:03;;;;;;;8.85;5.75;;;18.90;99.90;;;;;;5054054;28;20504;-69
2022/08/30 02:36:29;;;;;;;12.27;6.20;;;18.90;99.90;;;;;;5064513;28;20040;-69
2022/08/30 02:38:54;;;;;;;10.15;6.20;;;19.00;99.90;;;;;;5057746;28;20476;-69
2022/08/30 02:41:22;;;;;;;15.25;6.53;;;19.00;99.90;;;;;;5056969;28;20086;-69
2022/08/30 02:43:49;;;;;;;11.23;6.35;;;19.00;99.90;;;;;;5062311;28;20016;-69
2022/08/30 02:46:16;;;;;;;9.15;6.15;;;19.00;99.90;;;;;;5058805;28;20032;-68
2022/08/30 02:48:43;;;;;;;11.07;6.07;;;19.10;99.90;;;;;;5056644;28;20025;-69
2022/08/30 02:51:11;;;;;;;13.85;6.50;;;19.00;99.90;;;;;;5059005;28;20111;-69
2022/08/30 02:53:37;;;;;;;10.25;6.13;;;19.00;99.90;;;;;;5060915;28;20046;-69
2022/08/30 02:56:03;;;;;;;11.57;6.65;;;18.90;99.90;;;;;;5045136;28;20033;-69
2022/08/30 02:58:28;;;;;;;10.30;6.30;;;18.90;99.90;;;;;;5054590;28;20082;-69
2022/08/30 03:00:54;;;;;;;9.80;5.97;;;18.90;99.90;;;;;;5047494;28;20472;-69
2022/08/30 03:03:20;;;;;;;11.60;7.07;;;18.90;99.90;;;;;;5048209;28;20158;-68
2022/08/30 03:05:46;;;;;;;10.10;6.68;;;18.90;99.90;;;;;;5021465;28;20399;-70
2022/08/30 03:08:11;;;;;;;9.00;6.03;;;18.90;99.90;;;;;;5026712;28;20100;-69
2022/08/30 03:10:37;;;;;;;10.00;5.93;;;18.90;99.90;;;;;;5044436;28;20385;-70
2022/08/30 03:13:06;;;;;;;12.18;6.75;;;18.90;99.90;;;;;;5043849;28;20420;-69
2022/08/30 03:15:32;;;;;;;9.80;6.60;;;18.90;99.90;;;;;;5045536;28;20462;-69
2022/08/30 03:17:58;;;;;;;8.55;6.57;;;18.90;99.90;;;;;;5041320;28;20040;-69
2022/08/30 03:20:24;;;;;;;10.60;6.53;;;18.90;99.90;;;;;;5040445;28;20029;-69
2022/08/30 03:22:50;;;;;;;12.13;6.28;;;19.00;99.90;;;;;;5039086;28;20039;-69
2022/08/30 03:25:15;;;;;;;9.15;6.68;;;18.90;99.90;;;;;;5045516;28;20025;-69
2022/08/30 03:27:41;;;;;;;12.82;7.28;;;19.00;99.90;;;;;;5048535;28;20028;-69
2022/08/30 03:30:08;;;;;;;11.80;7.32;;;18.90;99.90;;;;;;5041816;28;20128;-69
2022/08/30 03:32:34;;;;;;;10.13;6.32;;;18.80;99.90;;;;;;5047892;28;20044;-69
2022/08/30 03:35:00;;;;;;;8.65;6.80;;;18.70;99.90;;;;;;5043928;28;20091;-70
2022/08/30 03:37:26;;;;;;;12.50;6.70;;;18.80;99.90;;;;;;5049395;28;20489;-69
2022/08/30 03:39:53;;;;;;;10.32;6.28;;;18.80;99.90;;;;;;5039409;28;20024;-70
2022/08/30 03:42:19;;;;;;;11.65;6.97;;;18.70;99.90;;;;;;5042406;28;20377;-70
2022/08/30 03:44:45;;;;;;;14.50;7.57;;;18.70;99.90;;;;;;5048640;28;20030;-69
2022/08/30 03:47:10;;;;;;;10.07;7.43;;;18.70;99.90;;;;;;5046491;28;20021;-70
2022/08/30 03:49:36;;;;;;;9.63;7.82;;;18.70;99.90;;;;;;5041530;28;20445;-69
2022/08/30 03:52:03;;;;;;;10.65;8.07;;;18.70;99.90;;;;;;5042081;28;20032;-70
2022/08/30 03:54:29;;;;;;;10.52;7.38;;;18.50;99.90;;;;;;5045467;28;20090;-70
2022/08/30 03:56:55;;;;;;;14.40;7.20;;;18.60;99.90;;;;;;5042860;28;20040;-69
2022/08/30 03:59:21;;;;;;;9.50;6.95;;;18.60;99.90;;;;;;5042913;28;20029;-69
2022/08/30 04:01:47;;;;;;;12.73;7.38;;;18.50;99.90;;;;;;5033094;28;20412;-70
2022/08/30 04:04:13;;;;;;;10.18;7.22;;;18.50;99.90;;;;;;5039803;28;20041;-69
2022/08/30 04:06:39;;;;;;;12.05;7.10;;;18.40;99.90;;;;;;5044659;28;20021;-69
2022/08/30 04:09:05;;;;;;;12.13;8.07;;;18.50;99.90;;;;;;5038564;28;20021;-69
2022/08/30 04:11:31;;;;;;;13.10;8.52;;;18.50;99.90;;;;;;5026935;28;20131;-69
2022/08/30 04:13:56;;;;;;;9.07;7.93;;;18.50;99.90;;;;;;5043772;28;20120;-70
2022/08/30 04:16:23;;;;;;;7.68;6.88;;;18.50;99.90;;;;;;5046067;28;20891;-70
2022/08/30 04:18:49;;;;;;;10.55;7.82;;;18.50;99.90;;;;;;5041359;28;20040;-69
2022/08/30 04:21:15;;;;;;;11.77;8.00;;;18.50;99.90;;;;;;5039678;28;20033;-69
2022/08/30 04:23:41;;;;;;;14.27;7.70;;;18.50;99.90;;;;;;5039158;28;20075;-69
2022/08/30 04:26:07;;;;;;;11.45;7.90;;;18.50;99.90;;;;;;5043844;28;20037;-69
2022/08/30 04:28:34;;;;;;;10.70;7.80;;;18.50;99.90;;;;;;5034743;28;20158;-69
2022/08/30 04:31:06;;;;;;;9.88;8.85;;;18.50;99.90;;;;;;5048496;28;20029;-69
2022/08/30 04:33:34;;;;;;;10.15;8.32;;;18.60;99.90;;;;;;5045674;28;20047;-69
2022/08/30 04:36:03;;;;;;;12.05;8.40;;;18.50;99.90;;;;;;5045047;28;20110;-69
2022/08/30 04:38:29;;;;;;;14.35;8.45;;;18.40;99.90;;;;;;5047246;28;20021;-69
2022/08/30 04:40:55;;;;;;;11.43;8.45;;;18.40;99.90;;;;;;5049654;28;20032;-69
2022/08/30 04:43:21;;;;;;;9.18;7.53;;;18.40;99.90;;;;;;5047746;28;20057;-69
2022/08/30 04:45:47;;;;;;;10.15;8.30;;;18.50;99.90;;;;;;5049197;28;20025;-69
2022/08/30 04:48:12;;;;;;;9.98;7.72;;;18.50;99.90;;;;;;5044392;28;20028;-69
2022/08/30 04:50:38;;;;;;;8.68;7.72;;;18.50;99.90;;;;;;5047160;28;20021;-70
2022/08/30 04:53:04;;;;;;;11.35;9.18;;;18.50;99.90;;;;;;5049976;28;20040;-69
2022/08/30 04:55:30;;;;;;;9.43;8.52;;;18.40;99.90;;;;;;5041035;28;20017;-69
2022/08/30 04:57:55;;;;;;;10.57;7.97;;;18.40;99.90;;;;;;5046162;28;20036;-70
2022/08/30 05:00:21;;;;;;;10.77;8.80;;;18.30;99.90;;;;;;5044349;28;20357;-69
2022/08/30 05:02:47;;;;;;;10.75;9.02;;;18.30;99.90;;;;;;5049224;28;20420;-69
2022/08/30 05:07:58;;;;;;;13.05;9.60;;;18.30;99.90;;;;;;5051542;28;20032;-72
2022/08/30 05:10:26;;;;;;;10.23;8.20;;;18.30;99.90;;;;;;5042256;28;20116;-70
2022/08/30 05:12:52;;;;;;;14.10;9.10;;;18.20;99.90;;;;;;5045582;28;20033;-70
2022/08/30 05:15:18;;;;;;;11.02;8.60;;;18.30;99.90;;;;;;5049985;28;20098;-70
2022/08/30 05:17:44;;;;;;;10.77;8.88;;;18.30;99.90;;;;;;5041827;28;20469;-70
2022/08/30 05:20:11;;;;;;;14.15;8.88;;;18.30;99.90;;;;;;5046196;28;20033;-70
2022/08/30 05:22:39;;;;;;;11.18;8.43;;;18.30;99.90;;;;;;5028978;28;20025;-70
2022/08/30 05:25:05;;;;;;;10.15;8.65;;;18.30;99.90;;;;;;5047062;28;20028;-69
2022/08/30 05:27:31;;;;;;;10.98;9.02;;;18.30;99.90;;;;;;5042138;28;20064;-70
2022/08/30 05:29:57;;;;;;;10.25;9.18;;;18.30;99.90;;;;;;5034420;28;20469;-72
2022/08/30 05:32:23;;;;;;;13.38;9.73;;;18.30;99.90;;;;;;5045839;28;20025;-69
2022/08/30 05:34:48;;;;;;;12.80;9.40;;;18.40;99.90;;;;;;5052058;28;20029;-70
2022/08/30 05:37:14;;;;;;;11.48;9.23;;;18.40;99.90;;;;;;5042467;28;20424;-70
2022/08/30 05:39:39;;;;;;;11.23;8.65;;;18.40;99.90;;;;;;5046628;28;20067;-70
2022/08/30 05:42:05;;;;;;;10.15;8.30;;;18.40;99.90;;;;;;5048505;28;20067;-70
2022/08/30 05:44:31;;;;;;;12.68;8.95;;;18.40;99.90;;;;;;5047115;28;20036;-70
2022/08/30 05:46:56;;;;;;;11.80;9.63;;;18.40;99.90;;;;;;5044547;28;20018;-70
2022/08/30 05:49:22;;;;;;;10.65;9.38;;;18.40;99.90;;;;;;5053568;28;20052;-70
2022/08/30 05:51:48;;;;;;;11.88;8.32;;;18.40;99.90;;;;;;5043614;28;20036;-70
2022/08/30 05:54:15;;;;;;;12.77;8.85;;;18.40;99.90;;;;;;5044916;28;20029;-70
2022/08/30 05:56:44;;;;;;;11.07;9.50;;;18.50;99.90;;;;;;5041142;28;20450;-70
2022/08/30 05:59:10;;;;;;;11.23;9.10;;;18.50;99.90;;;;;;5042090;28;20087;-70
2022/08/30 06:01:39;;;;;;;14.10;9.10;;;18.50;99.90;;;;;;5049854;28;20040;-70
2022/08/30 06:04:06;;;;;;;13.73;9.15;;;18.50;99.90;;;;;;5038957;28;20035;-72
2022/08/30 06:06:34;;;;;;;14.05;10.10;;;18.50;99.90;;;;;;5048560;28;20021;-69
2022/08/30 06:09:00;;;;;;;12.55;9.90;;;18.60;99.90;;;;;;5051549;28;20025;-69
2022/08/30 06:11:26;;;;;;;14.38;10.18;;;18.50;99.90;;;;;;5041990;28;20028;-68
2022/08/30 06:13:53;;;;;;;15.02;10.18;;;18.60;99.90;;;;;;5046850;28;20033;-69
2022/08/30 06:16:23;;;;;;;9.68;8.68;;;18.60;99.90;;;;;;5043408;28;20086;-69
2022/08/30 06:18:50;;;;;;;11.52;10.00;;;18.60;99.90;;;;;;5042644;28;20044;-69
2022/08/30 06:21:21;;;;;;;12.20;10.43;;;18.60;99.90;;;;;;5045466;28;20455;-69
2022/08/30 06:23:47;;;;;;;13.82;11.20;;;18.70;99.90;;;;;;5044240;28;20075;-69
2022/08/30 06:26:13;;;;;;;14.18;10.80;;;18.70;99.90;;;;;;5045340;28;20108;-69
2022/08/30 06:28:39;;;;;;;11.85;10.15;;;18.70;99.90;;;;;;5045576;28;20033;-70
2022/08/30 06:31:06;;;;;;;15.73;11.10;;;18.70;99.90;;;;;;5033417;28;20041;-70
2022/08/30 06:33:32;;;;;;;12.82;10.95;;;18.70;99.90;;;;;;5047352;28;20037;-70
2022/08/30 06:36:07;;;;;;;11.68;10.40;;;18.70;99.90;;;;;;5043294;28;20107;-69
2022/08/30 06:38:33;;;;;;;15.32;11.32;;;18.70;99.90;;;;;;5025489;28;20021;-68
2022/08/30 06:40:59;;;;;;;12.18;10.93;;;18.80;99.90;;;;;;5043019;28;20151;-70
2022/08/30 06:43:25;;;;;;;14.88;11.40;;;18.90;99.90;;;;;;5044616;28;20100;-69
2022/08/30 06:45:51;;;;;;;12.20;10.23;;;18.90;99.90;;;;;;5045962;28;20040;-70
2022/08/30 06:48:16;;;;;;;13.05;10.75;;;18.90;99.90;;;;;;5045213;28;20505;-71
2022/08/30 06:50:43;;;;;;;11.60;10.40;;;19.00;99.90;;;;;;5045459;28;20044;-70
2022/08/30 06:53:09;;;;;;;12.73;10.32;;;19.00;99.90;;;;;;5047616;28;20071;-70
2022/08/30 06:55:36;;;;;;;12.40;10.38;;;19.10;99.90;;;;;;5042731;28;20393;-69
2022/08/30 06:58:03;;;;;;;16.85;10.00;;;19.10;99.90;;;;;;5048719;28;20500;-68
2022/08/30 07:00:29;;;;;;;11.82;10.45;;;19.10;99.90;;;;;;5045709;28;20017;-69
2022/08/30 07:02:56;;;;;;;12.85;10.18;;;19.20;99.90;;;;;;5049832;28;20650;-69
2022/08/30 07:05:22;;;;;;;13.43;8.45;;;19.10;99.90;;;;;;5032843;28;20017;-68
2022/08/30 07:07:49;;;;;;;12.75;10.63;;;19.20;99.90;;;;;;5028473;28;20024;-69
2022/08/30 07:10:15;;;;;;;13.38;10.30;;;19.10;99.90;;;;;;5041494;28;20017;-69
2022/08/30 07:12:41;;;;;;;13.82;10.65;;;19.20;99.90;;;;;;5033594;28;20429;-69
2022/08/30 07:15:07;;;;;;;14.27;10.05;;;19.30;99.90;;;;;;5048708;28;20034;-68
2022/08/30 07:20:18;;;;;;;13.48;10.73;;;19.50;99.90;;;;;;5049735;28;20056;-69
2022/08/30 07:22:45;;;;;;;13.07;10.98;;;19.50;99.90;;;;;;5042412;28;20037;-69
2022/08/30 07:25:11;;;;;;;12.52;9.98;;;19.50;99.90;;;;;;5042607;28;20021;-69
2022/08/30 07:27:37;;;;;;;12.93;10.23;;;19.60;99.90;;;;;;5047025;28;20032;-70
2022/08/30 07:30:06;;;;;;;12.98;10.25;;;19.60;99.90;;;;;;5041473;28;20025;-69
2022/08/30 07:32:32;;;;;;;12.00;9.68;;;19.70;99.90;;;;;;5049169;28;20037;-69
2022/08/30 07:34:58;;;;;;;10.80;9.70;;;19.70;99.90;;;;;;5054285;28;20017;-70
2022/08/30 07:37:23;;;;;;;11.75;9.75;;;19.80;99.90;;;;;;5048172;28;20175;-68
2022/08/30 07:39:49;;;;;;;15.93;10.48;;;19.90;99.90;;;;;;5043207;28;20025;-69
2022/08/30 07:42:15;;;;;;;16.05;9.68;;;19.90;99.90;;;;;;5032342;28;20029;-70
2022/08/30 07:44:42;;;;;;;11.77;9.57;;;19.90;99.90;;;;;;5049664;28;20036;-69
2022/08/30 07:47:08;;;;;;;11.50;8.60;;;20.00;99.90;;;;;;5046709;28;20017;-68
2022/08/30 07:49:35;;;;;;;13.88;8.30;;;20.00;99.90;;;;;;5050856;28;20112;-68
2022/08/30 07:52:01;;;;;;;12.90;8.73;;;20.10;99.90;;;;;;5037999;28;20028;-71
2022/08/30 07:54:26;;;;;;;11.30;9.30;;;20.20;99.90;;;;;;5054693;28;20473;-70
2022/08/30 07:56:54;;;;;;;12.43;8.93;;;20.30;99.90;;;;;;5049398;28;20063;-69
2022/08/30 07:59:21;;;;;;;10.65;8.93;;;20.40;99.90;;;;;;5050203;28;20037;-68
2022/08/30 08:01:46;;;;;;;12.63;8.07;;;20.40;99.90;;;;;;5054295;28;20016;-69
2022/08/30 08:04:12;;;;;;;11.68;8.70;;;20.50;99.90;;;;;;5047616;28;20480;-68
2022/08/30 08:06:39;;;;;;;11.55;7.60;;;20.50;99.90;;;;;;5039501;28;20071;-69
2022/08/30 08:09:06;;;;;;;11.35;7.40;;;20.60;99.90;;;;;;5054859;28;20025;-69
2022/08/30 08:11:33;;;;;;;15.88;8.25;;;20.70;99.90;;;;;;5044934;28;20424;-68
2022/08/30 08:13:59;;;;;;;11.82;8.70;;;20.80;99.90;;;;;;5052206;28;20032;-68
2022/08/30 08:16:27;;;;;;;11.50;7.60;;;20.90;99.90;;;;;;5046745;28;20057;-75
2022/08/30 08:18:54;;;;;;;11.73;7.93;;;21.00;99.90;;;;;;5026967;28;20031;-72
2022/08/30 08:21:21;;;;;;;14.10;7.65;;;21.00;99.90;;;;;;5049847;28;20024;-72
2022/08/30 08:23:47;;;;;;;11.35;7.70;;;21.10;99.90;;;;;;5052495;28;20032;-71
2022/08/30 08:26:13;;;;;;;8.15;7.30;;;21.10;99.90;;;;;;5045784;28;20386;-70
2022/08/30 08:28:39;;;;;;;14.15;7.70;;;21.10;99.90;;;;;;5042603;28;20031;-70
2022/08/30 08:31:20;;;;;;;9.38;6.15;;;21.10;99.90;;;;;;5049753;28;20037;-68
2022/08/30 08:33:46;;;;;;;13.55;6.55;;;21.30;99.90;;;;;;5017697;28;20317;-69
2022/08/30 08:36:14;;;;;;;7.28;5.95;;;21.40;99.90;;;;;;5036406;28;20029;-69
2022/08/30 08:38:41;;;;;;;7.50;6.00;;;21.50;99.90;;;;;;5042131;28;20029;-69
2022/08/30 08:41:36;;;;;;;10.45;6.65;;;21.60;99.90;;;;;;5047891;28;20029;-69
2022/08/30 08:44:32;;;;;;;7.07;6.38;;;21.70;99.90;;;;;;5043878;28;20247;-68
2022/08/30 08:47:10;;;;;;;11.27;7.50;;;21.70;99.90;;;;;;5009512;28;20075;-68
2022/08/30 08:49:38;;;;;;;9.68;6.13;;;21.60;99.90;;;;;;5046542;28;20113;-69
2022/08/30 08:55:01;;;;;;;8.32;6.03;;;21.90;99.90;;;;;;5041203;28;20035;-69
2022/08/30 08:57:32;;;;;;;11.27;6.97;;;21.90;99.90;;;;;;5047070;28;20116;-69
2022/08/30 08:59:58;;;;;;;8.63;5.33;;;22.00;99.90;;;;;;5042559;28;20036;-70
2022/08/30 09:02:34;;;;;;;10.98;6.25;;;22.00;99.90;;;;;;5048336;28;20401;-70
2022/08/30 09:05:01;;;;;;;8.85;6.03;;;22.20;99.90;;;;;;5036770;28;20048;-69
2022/08/30 09:07:33;;;;;;;7.47;5.88;;;22.30;99.90;;;;;;5043553;28;20076;-69
2022/08/30 09:09:59;;;;;;;7.68;5.55;;;22.30;99.90;;;;;;5020710;28;20469;-69
2022/08/30 09:12:26;;;;;;;10.15;7.35;;;22.50;99.90;;;;;;5046443;28;20056;-69
2022/08/30 09:15:05;;;;;;;10.35;5.43;;;22.50;99.90;;;;;;5052036;28;20029;-69
2022/08/30 09:17:52;;;;;;;9.00;5.93;;;22.60;99.90;;;;;;5053572;28;20035;-69
2022/08/30 09:20:47;;;;;;;7.97;5.20;;;22.70;99.90;;;;;;5055341;28;20041;-69
2022/08/30 09:23:13;;;;;;;8.00;4.93;;;22.80;99.90;;;;;;5051356;28;20428;-70
2022/08/30 09:25:51;;;;;;;6.80;5.00;;;23.00;99.90;;;;;;5051918;28;20033;-71
2022/08/30 09:28:22;;;;;;;10.20;5.25;;;23.20;99.90;;;;;;5047851;28;20462;-72
2022/08/30 09:31:17;;;;;;;7.45;5.25;;;23.30;99.90;;;;;;5054227;28;20516;-72
2022/08/30 09:34:04;;;;;;;7.88;4.82;;;23.30;99.90;;;;;;5046256;28;20029;-70
2022/08/30 09:36:39;;;;;;;10.88;5.47;;;23.30;99.90;;;;;;5055140;28;20151;-69
2022/08/30 09:39:16;;;;;;;7.07;4.40;;;23.40;99.90;;;;;;5025119;28;20427;-70
2022/08/30 09:41:44;;;;;;;7.88;4.75;;;23.50;99.90;;;;;;5053955;28;20018;-69
2022/08/30 09:44:22;;;;;;;7.40;4.95;;;23.60;99.90;;;;;;5057468;28;20037;-68
2022/08/30 09:46:51;;;;;;;6.40;4.70;;;23.70;99.90;;;;;;5048381;28;20029;-69
2022/08/30 09:49:38;;;;;;;7.40;4.72;;;23.80;99.90;;;;;;5045003;28;20544;-69
2022/08/30 09:52:48;;;;;;;6.38;4.32;;;23.80;99.90;;;;;;5050886;28;20047;-70
2022/08/30 09:55:22;;;;;;;5.18;4.18;;;23.90;99.90;;;;;;5026686;28;20043;-69
2022/08/30 09:58:06;;;;;;;7.97;3.97;;;24.20;99.90;;;;;;5045742;28;20146;-70
2022/08/30 10:00:45;;;;;;;7.10;3.63;;;24.30;99.90;;;;;;5051128;28;20028;-69
2022/08/30 10:03:19;;;;;;;9.23;3.50;;;24.30;99.90;;;;;;5048299;28;20085;-68
2022/08/30 10:06:02;;;;;;;7.78;3.97;;;24.50;99.90;;;;;;5055430;28;20377;-69
2022/08/30 10:08:30;;;;;;;;;;;24.70;99.90;;;;;;5060139;28;20035;-69
2022/08/30 10:11:26;;;;;;;4.93;3.55;;;24.70;99.90;;;;;;5051682;28;19909;-69
2022/08/30 10:14:13;;;;;;;5.45;3.25;;;24.70;99.90;;;;;;4996452;28;20055;-72
2022/08/30 10:16:46;;;;;;;5.80;3.83;;;24.80;99.90;;;;;;5051109;28;20040;-71
2022/08/30 10:19:28;;;;;;;5.85;3.45;;;24.80;99.90;;;;;;5045962;28;20705;-69
2022/08/30 10:22:18;;;;;;;9.30;3.63;;;24.90;99.90;;;;;;5035821;28;20115;-69
2022/08/30 10:24:52;;;;;;;6.63;3.90;;;24.90;99.90;;;;;;5052119;28;20841;-69
2022/08/30 10:27:33;;;;;;;7.00;3.90;;;25.00;99.90;;;;;;5053485;28;20025;-69
2022/08/30 10:30:09;;;;;;;5.88;2.95;;;24.90;99.90;;;;;;5052647;28;20032;-68
2022/08/30 10:32:43;;;;;;;5.68;2.75;;;25.00;99.90;;;;;;5040424;28;20065;-68
2022/08/30 10:35:21;;;;;;;5.70;3.60;;;25.10;99.90;;;;;;5048402;28;20041;-69
2022/08/30 10:37:52;;;;;;;5.20;3.08;;;25.20;99.90;;;;;;5041084;28;20026;-69
2022/08/30 10:43:30;;;;;;;4.85;3.40;;;25.10;99.90;;;;;;5055295;28;20111;-69
2022/08/30 10:46:01;;;;;;;5.88;3.42;;;25.00;99.90;;;;;;5041324;28;20013;-69
2022/08/30 10:48:42;;;;;;;3.22;2.33;;;25.10;99.90;;;;;;5056596;28;20083;-69
2022/08/30 10:51:13;;;;;;;5.50;2.58;;;25.30;99.90;;;;;;5048851;28;20024;-68
2022/08/30 10:53:53;;;;;;;7.03;3.22;;;25.40;99.90;;;;;;5036046;28;20058;-70
2022/08/30 10:56:23;;;;;;;2.92;2.50;;;25.40;99.90;;;;;;5047096;28;20024;-70
2022/08/30 10:58:49;;;;;;;5.68;2.65;;;25.40;99.90;;;;;;5041626;28;20052;-68
2022/08/30 11:01:42;;;;;;;5.50;2.78;;;25.60;99.90;;;;;;5046910;28;20473;-69
2022/08/30 11:04:29;;;;;;;6.85;3.50;;;25.60;99.90;;;;;;5039578;28;20083;-69
2022/08/30 11:07:23;;;;;;;5.95;2.90;;;25.40;99.90;;;;;;5047053;28;20025;-70
2022/08/30 11:10:22;;;;;;;6.47;2.75;;;25.30;99.90;;;;;;5046773;28;20394;-70
2022/08/30 11:13:19;;;;;;;4.60;2.47;;;25.10;99.90;;;;;;5051866;28;20048;-69
2022/08/30 11:16:08;;;;;;;5.15;2.33;;;25.20;99.90;;;;;;5039682;28;20025;-69
2022/08/30 11:18:46;;;;;;;4.20;2.67;;;25.40;99.90;;;;;;5051331;28;20059;-70
2022/08/30 11:21:21;;;;;;;7.63;2.45;;;25.50;99.90;;;;;;5047802;28;20059;-70
2022/08/30 11:24:12;;;;;;;4.43;2.70;;;25.60;99.90;;;;;;5046974;28;20457;-70
2022/08/30 11:26:53;;;;;;;4.60;1.95;;;25.60;99.90;;;;;;5037246;28;20031;-70
2022/08/30 11:29:25;;;;;;;4.55;2.50;;;25.70;99.90;;;;;;5040481;28;20397;-70
2022/08/30 11:31:52;;;;;;;2.63;2.25;;;25.70;99.90;;;;;;5042878;28;20027;-70
2022/08/30 11:34:43;;;;;;;4.88;2.28;;;25.80;99.90;;;;;;5044010;28;20056;-69
2022/08/30 11:37:10;;;;;;;2.10;1.90;;;25.70;99.90;;;;;;5040838;28;20029;-70
2022/08/30 11:39:48;;;;;;;2.60;1.48;;;25.70;99.90;;;;;;5045134;28;20029;-69
2022/08/30 11:42:39;;;;;;;5.35;2.10;;;25.60;99.90;;;;;;5036716;28;20025;-70
2022/08/30 11:45:23;;;;;;;4.45;1.92;;;25.60;99.90;;;;;;5044297;28;20056;-71
2022/08/30 11:47:58;;;;;;;3.03;1.88;;;25.60;99.90;;;;;;5041880;28;20083;-71
2022/08/30 11:50:35;;;;;;;5.05;2.20;;;25.70;99.90;;;;;;5043724;28;20027;-70
2022/08/30 11:53:28;;;;;;;3.53;2.08;;;25.80;99.90;;;;;;5042441;28;20067;-70
2022/08/30 11:56:13;;;;;;;2.38;2.03;;;25.80;99.90;;;;;;5048571;28;20112;-71
2022/08/30 11:58:41;;;;;;;3.85;1.70;;;25.90;99.90;;;;;;5049241;28;20111;-70
2022/08/30 12:01:27;;;;;;;6.13;1.67;;;25.90;99.90;;;;;;5045671;28;20029;-70
2022/08/30 12:04:15;;;;;;;4.43;1.67;;;25.90;99.90;;;;;;5033025;28;20488;-71
2022/08/30 12:06:41;;;;;;;7.45;1.95;;;26.00;99.90;;;;;;4990740;28;20076;-71
2022/08/30 12:09:07;;;;;;;3.83;1.75;;;26.10;99.90;;;;;;5040387;28;20130;-70
2022/08/30 12:11:33;;;;;;;4.03;1.90;;;26.00;99.90;;;;;;5042619;28;20028;-71
2022/08/30 12:14:00;;;;;;;4.70;1.80;;;26.00;99.90;;;;;;5041742;28;20033;-71
2022/08/30 12:19:32;;;;;;;4.85;1.65;;;26.20;99.70;;;;;;5045601;28;20086;-71
2022/08/30 12:22:04;;;;;;;3.97;1.60;;;26.30;99.90;;;;;;5040636;28;20079;-70
2022/08/30 12:24:42;;;;;;;3.22;1.70;;;26.40;99.90;;;;;;5043337;28;20602;-71
2022/08/30 12:27:27;;;;;;;4.68;1.92;;;26.50;99.70;;;;;;5048071;28;20067;-70
2022/08/30 12:29:58;;;;;;;4.93;1.73;;;26.50;99.80;;;;;;5032616;28;20108;-70
2022/08/30 12:32:25;;;;;;;5.65;1.85;;;26.40;99.70;;;;;;5037568;28;20428;-71
2022/08/30 12:34:52;;;;;;;3.75;1.67;;;26.40;99.40;;;;;;5031043;28;20029;-71
2022/08/30 12:37:23;;;;;;;2.15;1.45;;;26.40;99.70;;;;;;5036911;28;20036;-71
2022/08/30 12:40:25;;;;;;;6.40;2.05;;;26.40;99.90;;;;;;5037302;28;20358;-71
2022/08/30 12:43:03;;;;;;;4.25;1.42;;;26.30;99.30;;;;;;5035698;28;20068;-70
2022/08/30 12:45:43;;;;;;;3.55;2.08;;;26.30;99.50;;;;;;5045738;28;20074;-71
2022/08/30 12:48:14;;;;;;;4.53;1.77;;;26.40;98.40;;;;;;5045673;28;20083;-70
2022/08/30 12:50:57;;;;;;;4.32;1.67;;;26.40;98.60;;;;;;5051076;28;20021;-70
2022/08/30 12:53:31;;;;;;;4.07;2.10;;;26.50;98.80;;;;;;5043922;28;20045;-71
2022/08/30 12:56:02;;;;;;;2.42;1.73;;;26.70;98.80;;;;;;5049253;28;20032;-71
2022/08/30 12:58:40;;;;;;;3.80;1.60;;;26.50;97.90;;;;;;5044211;28;20049;-70
2022/08/30 13:01:34;;;;;;;3.90;1.45;;;26.40;98.30;;;;;;5046975;28;20151;-71
2022/08/30 13:04:26;;;;;;;2.00;1.40;;;26.60;99.10;;;;;;5051839;28;20032;-71
2022/08/30 13:07:00;;;;;;;5.10;1.58;;;26.60;98.70;;;;;;5046335;28;20022;-70
2022/08/30 13:09:35;;;;;;;5.05;1.80;;;26.70;97.60;;;;;;5042645;28;20045;-71
2022/08/30 13:12:04;;;;;;;5.05;1.77;;;26.90;98.60;;;;;;5048071;28;20466;-70
2022/08/30 13:14:40;;;;;;;3.70;1.63;;;27.00;98.20;;;;;;5052187;28;20037;-70